Time;durP1;ratioP1;P1;durP2;ratioP2;P2;SDS_P1;SDS_P2;PMS_P1;PMS_P2;Temp;Humidity;BMP_temperature;BMP_pressure;BME280_temperature;BME280_humidity;BME280_pressure;Samples;Min_cycle;Max_cycle;Signal;HPM_P1;HPM_P2
2022/03/07 00:01:26;;;;;;;9.13;4.17;;;0.50;99.90;;;;;;5053800;28;20208;-70
2022/03/07 00:03:53;;;;;;;12.07;5.10;;;0.40;99.90;;;;;;5035022;28;20021;-70
2022/03/07 00:06:19;;;;;;;;;;;0.40;99.90;;;;;;5055407;28;20108;-71
2022/03/07 00:08:44;;;;;;;6.35;3.20;;;0.50;99.90;;;;;;5053819;28;19996;-70
2022/03/07 00:11:10;;;;;;;10.67;4.00;;;0.50;99.90;;;;;;5048074;28;20325;-70
2022/03/07 00:13:36;;;;;;;8.60;4.33;;;0.60;99.90;;;;;;5026093;28;20046;-70
2022/03/07 00:16:03;;;;;;;10.63;4.30;;;0.50;99.90;;;;;;5032582;28;20316;-81
2022/03/07 00:18:29;;;;;;;9.20;4.22;;;0.30;99.90;;;;;;5054735;28;20032;-70
2022/03/07 00:20:55;;;;;;;13.93;4.55;;;0.30;99.90;;;;;;5036954;28;20029;-70
2022/03/07 00:23:21;;;;;;;8.97;4.53;;;0.20;99.90;;;;;;5053971;28;20033;-70
2022/03/07 00:25:47;;;;;;;14.17;5.10;;;0.20;99.90;;;;;;5055179;28;20062;-70
2022/03/07 00:28:16;;;;;;;9.10;5.07;;;0.20;99.90;;;;;;5053084;28;20025;-70
2022/03/07 00:30:41;;;;;;;9.13;5.10;;;0.20;99.90;;;;;;5053599;28;20120;-70
2022/03/07 00:33:08;;;;;;;8.97;4.57;;;0.10;99.90;;;;;;5050966;28;20028;-70
2022/03/07 00:35:33;;;;;;;10.57;4.85;;;0.10;99.90;;;;;;5033914;28;20028;-70
2022/03/07 00:37:59;;;;;;;6.30;3.70;;;0.00;99.90;;;;;;5019754;28;20045;-70
2022/03/07 00:40:25;;;;;;;8.90;3.23;;;0.00;99.90;;;;;;5035310;28;20432;-83
2022/03/07 00:42:51;;;;;;;8.90;4.47;;;-0.10;99.90;;;;;;5053078;28;20025;-79
2022/03/07 00:45:17;;;;;;;7.63;3.77;;;-0.10;99.90;;;;;;5054636;28;20025;-70
2022/03/07 00:47:43;;;;;;;15.10;4.30;;;-0.10;99.90;;;;;;5053780;28;21519;-70
2022/03/07 00:50:09;;;;;;;6.87;4.63;;;-0.20;99.90;;;;;;5054349;28;20171;-70
2022/03/07 00:52:35;;;;;;;10.25;5.30;;;-0.30;99.90;;;;;;5052516;28;20037;-70
2022/03/07 00:55:01;;;;;;;6.50;3.50;;;-0.30;99.90;;;;;;5054645;28;20033;-70
2022/03/07 00:57:26;;;;;;;5.93;3.20;;;-0.40;99.90;;;;;;5037235;28;20040;-83
2022/03/07 00:59:52;;;;;;;7.27;3.57;;;-0.40;99.90;;;;;;5036324;28;20102;-70
2022/03/07 01:02:18;;;;;;;8.83;4.77;;;-0.50;99.90;;;;;;5050280;28;20101;-70
2022/03/07 01:04:43;;;;;;;7.00;3.57;;;-0.50;99.90;;;;;;5054123;28;20108;-70
2022/03/07 01:07:09;;;;;;;9.23;3.40;;;-0.60;99.90;;;;;;5053673;28;20065;-71
2022/03/07 01:09:35;;;;;;;7.83;3.80;;;-0.50;99.90;;;;;;5052373;28;20438;-70
2022/03/07 01:12:01;;;;;;;10.97;3.97;;;-0.60;99.90;;;;;;5036235;28;20124;-84
2022/03/07 01:14:27;;;;;;;6.70;3.93;;;-0.60;99.90;;;;;;5049229;28;20116;-70
2022/03/07 01:16:52;;;;;;;5.00;3.07;;;-0.60;99.90;;;;;;5048112;28;20108;-70
2022/03/07 01:19:18;;;;;;;9.30;4.43;;;-0.60;99.90;;;;;;5050820;28;20097;-70
2022/03/07 01:21:44;;;;;;;6.87;3.93;;;-0.70;99.90;;;;;;5052600;28;20032;-70
2022/03/07 01:24:10;;;;;;;13.80;4.75;;;-0.80;99.90;;;;;;5027825;28;20029;-70
2022/03/07 01:26:37;;;;;;;7.27;4.70;;;-0.80;99.90;;;;;;5052692;28;20041;-70
2022/03/07 01:29:03;;;;;;;5.72;3.25;;;-0.80;99.90;;;;;;5035101;28;20032;-70
2022/03/07 01:31:29;;;;;;;8.07;3.42;;;-0.90;99.90;;;;;;5049943;28;20116;-70
2022/03/07 01:33:54;;;;;;;13.83;5.10;;;-0.90;99.90;;;;;;5047735;28;20104;-70
2022/03/07 01:36:20;;;;;;;8.17;3.83;;;-0.90;99.90;;;;;;5052105;28;20090;-70
2022/03/07 01:38:46;;;;;;;8.70;5.20;;;-1.00;99.90;;;;;;5052824;28;20048;-70
2022/03/07 01:41:12;;;;;;;7.07;3.43;;;-1.00;99.90;;;;;;5043216;28;20036;-70
2022/03/07 01:43:38;;;;;;;7.80;4.03;;;-1.10;99.90;;;;;;5051785;28;20033;-70
2022/03/07 01:46:03;;;;;;;8.27;3.40;;;-1.10;99.90;;;;;;5050859;28;20082;-70
2022/03/07 01:48:29;;;;;;;5.47;3.30;;;-1.10;99.90;;;;;;5048751;28;20037;-70
2022/03/07 01:50:55;;;;;;;6.57;4.23;;;-1.10;99.90;;;;;;5043552;28;20327;-70
2022/03/07 01:53:21;;;;;;;9.73;4.60;;;-1.10;99.90;;;;;;5048845;28;20039;-70
2022/03/07 01:55:47;;;;;;;11.65;4.93;;;-1.20;99.90;;;;;;5052250;28;20033;-70
2022/03/07 01:58:13;;;;;;;12.33;4.30;;;-1.20;99.90;;;;;;5053235;28;20423;-70
2022/03/07 02:00:39;;;;;;;10.67;4.87;;;-1.20;99.90;;;;;;5053949;28;20021;-69
2022/03/07 02:03:06;;;;;;;7.33;4.33;;;-1.30;99.90;;;;;;5054145;28;20366;-70
2022/03/07 02:05:32;;;;;;;9.93;4.28;;;-1.40;99.90;;;;;;5052517;28;20025;-70
2022/03/07 02:07:58;;;;;;;2.83;1.90;;;-1.40;99.90;;;;;;5054140;28;20043;-70
2022/03/07 02:10:27;;;;;;;5.83;3.37;;;-1.60;99.90;;;;;;5045404;28;20033;-70
2022/03/07 02:12:53;;;;;;;5.13;3.20;;;-1.80;99.90;;;;;;5053637;28;20069;-83
2022/03/07 02:15:19;;;;;;;5.77;3.83;;;-1.80;99.90;;;;;;5036112;28;20053;-70
2022/03/07 02:17:45;;;;;;;4.77;2.93;;;-1.90;99.90;;;;;;5050505;28;20369;-70
2022/03/07 02:20:12;;;;;;;9.13;4.13;;;-2.00;99.90;;;;;;5052554;28;20032;-70
2022/03/07 02:22:38;;;;;;;12.52;5.13;;;-2.20;99.90;;;;;;5034274;28;20033;-70
2022/03/07 02:25:05;;;;;;;10.73;5.60;;;-2.20;99.90;;;;;;5035414;28;20028;-70
2022/03/07 02:27:31;;;;;;;;;;;-2.20;99.90;;;;;;5038351;28;20079;-70
2022/03/07 02:29:59;;;;;;;;;;;-2.20;99.90;;;;;;5057565;28;20215;-71
2022/03/07 02:32:26;;;;;;;9.90;5.13;;;-2.20;99.90;;;;;;5051967;28;19915;-83
2022/03/07 02:34:52;;;;;;;12.23;5.13;;;-2.10;99.90;;;;;;5037564;28;20043;-70
2022/03/07 02:37:18;;;;;;;9.52;4.18;;;-2.00;99.90;;;;;;5057841;28;20025;-70
2022/03/07 02:39:45;;;;;;;9.57;3.92;;;-1.90;99.90;;;;;;5037971;28;20037;-83
2022/03/07 02:42:12;;;;;;;18.38;6.47;;;-1.90;99.90;;;;;;5056869;28;20039;-70
2022/03/07 02:44:38;;;;;;;20.83;6.45;;;-2.00;99.90;;;;;;5054760;28;20041;-70
2022/03/07 02:47:04;;;;;;;18.17;6.15;;;-2.00;99.90;;;;;;5045235;28;20031;-81
2022/03/07 02:49:30;;;;;;;21.63;6.85;;;-2.10;99.90;;;;;;5037066;28;20037;-70
2022/03/07 02:51:56;;;;;;;9.10;4.13;;;-2.10;99.90;;;;;;5056817;28;20350;-70
2022/03/07 02:54:21;;;;;;;8.57;4.40;;;-2.10;99.90;;;;;;5056861;28;20116;-70
2022/03/07 02:56:47;;;;;;;20.30;5.53;;;-2.20;99.90;;;;;;5036409;28;20025;-70
2022/03/07 02:59:14;;;;;;;8.67;5.00;;;-2.30;99.90;;;;;;5056050;28;20408;-70
2022/03/07 03:01:40;;;;;;;9.70;5.65;;;-2.30;99.90;;;;;;5056905;28;20029;-70
2022/03/07 03:04:06;;;;;;;10.70;4.57;;;-2.40;99.90;;;;;;5054945;28;20489;-70
2022/03/07 03:06:31;;;;;;;15.57;6.67;;;-2.40;99.90;;;;;;5050732;28;20024;-70
2022/03/07 03:08:57;;;;;;;13.83;6.00;;;-2.40;99.90;;;;;;5037969;28;20441;-70
2022/03/07 03:11:23;;;;;;;13.53;6.50;;;-2.40;99.90;;;;;;5056281;28;20067;-82
2022/03/07 03:13:48;;;;;;;20.17;7.30;;;-2.30;99.90;;;;;;5050625;28;20037;-70
2022/03/07 03:16:14;;;;;;;12.10;6.17;;;-2.30;99.90;;;;;;5056343;28;20107;-70
2022/03/07 03:18:40;;;;;;;13.63;5.30;;;-2.20;99.90;;;;;;5056320;28;20048;-70
2022/03/07 03:21:06;;;;;;;16.23;4.70;;;-2.20;99.90;;;;;;5055362;28;20362;-70
2022/03/07 03:23:31;;;;;;;14.43;6.10;;;-2.20;99.90;;;;;;5049676;28;20052;-76
2022/03/07 03:25:57;;;;;;;19.10;6.03;;;-2.20;99.90;;;;;;5038398;28;20033;-71
2022/03/07 03:28:23;;;;;;;16.30;7.10;;;-2.20;99.90;;;;;;5054944;28;20435;-71
2022/03/07 03:30:50;;;;;;;15.18;6.40;;;-2.10;99.90;;;;;;5048977;28;20394;-70
2022/03/07 03:33:16;;;;;;;11.65;6.30;;;-2.00;99.90;;;;;;5055622;28;20495;-70
2022/03/07 03:35:42;;;;;;;12.70;6.67;;;-1.80;99.90;;;;;;5056412;28;20108;-70
2022/03/07 03:38:11;;;;;;;12.03;5.63;;;-1.80;99.90;;;;;;5030775;28;20072;-70
2022/03/07 03:40:37;;;;;;;15.13;6.70;;;-1.80;99.90;;;;;;5033586;28;20035;-70
2022/03/07 03:43:03;;;;;;;;;;;-1.70;99.90;;;;;;5054286;28;20384;-70
2022/03/07 03:45:30;;;;;;;11.48;5.50;;;-1.60;99.90;;;;;;5050833;28;19935;-70
2022/03/07 03:47:56;;;;;;;;;;;-1.50;99.90;;;;;;5054693;28;20048;-70
2022/03/07 03:50:22;;;;;;;14.88;6.47;;;-1.60;99.90;;;;;;5052993;28;19913;-70
2022/03/07 03:52:48;;;;;;;15.07;7.37;;;-1.60;99.90;;;;;;5053216;28;20481;-70
2022/03/07 03:55:16;;;;;;;11.07;5.30;;;-1.60;99.90;;;;;;5055403;28;20025;-70
2022/03/07 03:57:42;;;;;;;15.27;6.70;;;-1.70;99.90;;;;;;5055524;28;20024;-70
2022/03/07 04:00:11;;;;;;;18.15;7.75;;;-1.70;99.90;;;;;;5056280;28;20025;-71
2022/03/07 04:02:36;;;;;;;19.08;7.57;;;-1.70;99.90;;;;;;5054024;28;20463;-70
2022/03/07 04:05:03;;;;;;;17.57;7.33;;;-1.70;99.90;;;;;;5054716;28;20146;-70
2022/03/07 04:07:28;;;;;;;11.55;5.63;;;-1.80;99.90;;;;;;5055369;28;20021;-70
2022/03/07 04:09:54;;;;;;;13.93;5.37;;;-1.90;99.90;;;;;;5053199;28;20063;-70
2022/03/07 04:12:20;;;;;;;8.73;4.18;;;-2.00;99.90;;;;;;5051643;28;20032;-70
2022/03/07 04:14:46;;;;;;;16.10;6.18;;;-2.00;99.90;;;;;;5053607;28;20041;-83
2022/03/07 04:17:12;;;;;;;17.77;7.03;;;-2.10;99.90;;;;;;5047702;28;20035;-69
2022/03/07 04:19:37;;;;;;;16.13;6.80;;;-2.00;99.90;;;;;;5047884;28;20045;-70
2022/03/07 04:22:04;;;;;;;13.13;5.37;;;-1.90;99.90;;;;;;5051772;28;20560;-70
2022/03/07 04:24:30;;;;;;;14.88;5.47;;;-1.90;99.90;;;;;;5036909;28;20382;-70
2022/03/07 04:26:57;;;;;;;11.10;5.90;;;-1.80;99.90;;;;;;5048335;28;20033;-70
2022/03/07 04:29:23;;;;;;;12.13;5.90;;;-1.90;99.90;;;;;;5050821;28;20049;-70
2022/03/07 04:31:49;;;;;;;10.15;5.15;;;-1.90;99.90;;;;;;5054491;28;20041;-71
2022/03/07 04:34:15;;;;;;;11.87;6.10;;;-1.80;99.90;;;;;;5052200;28;20029;-70
2022/03/07 04:36:41;;;;;;;10.05;5.28;;;-1.90;99.90;;;;;;5050554;28;20035;-70
2022/03/07 04:39:09;;;;;;;9.35;5.13;;;-1.90;99.90;;;;;;5030865;28;20049;-70
2022/03/07 04:41:36;;;;;;;12.52;5.28;;;-1.90;99.90;;;;;;5040723;28;20041;-70
2022/03/07 04:44:02;;;;;;;10.85;5.80;;;-1.90;99.90;;;;;;5045354;28;20044;-70
2022/03/07 04:46:29;;;;;;;9.40;4.38;;;-1.90;99.90;;;;;;5047810;28;20392;-70
2022/03/07 04:48:54;;;;;;;12.20;5.43;;;-2.00;99.90;;;;;;5049000;28;20064;-70
2022/03/07 04:51:20;;;;;;;8.50;3.97;;;-2.10;99.90;;;;;;5051837;28;20029;-70
2022/03/07 04:53:46;;;;;;;16.90;5.60;;;-2.20;99.90;;;;;;5047938;28;20061;-70
2022/03/07 04:56:12;;;;;;;8.20;3.80;;;-2.20;99.90;;;;;;5052975;28;20040;-70
2022/03/07 04:58:38;;;;;;;12.80;5.77;;;-2.30;99.90;;;;;;5044459;28;20032;-70
2022/03/07 05:01:04;;;;;;;12.73;5.32;;;-2.30;99.90;;;;;;5053278;28;20031;-70
2022/03/07 05:03:30;;;;;;;12.77;5.57;;;-2.20;99.90;;;;;;5053450;28;20112;-69
2022/03/07 05:05:57;;;;;;;9.93;4.78;;;-2.20;99.90;;;;;;5053705;28;20401;-70
2022/03/07 05:08:22;;;;;;;12.68;5.07;;;-2.20;99.90;;;;;;5053685;28;20029;-70
2022/03/07 05:10:48;;;;;;;11.83;5.67;;;-2.30;99.90;;;;;;5035445;28;21718;-70
2022/03/07 05:13:14;;;;;;;10.17;5.47;;;-2.40;99.90;;;;;;5052387;28;20032;-70
2022/03/07 05:15:40;;;;;;;21.70;6.23;;;-2.40;99.90;;;;;;5050057;28;20430;-70
2022/03/07 05:18:06;;;;;;;8.57;4.97;;;-2.40;99.90;;;;;;5052903;28;20447;-83
2022/03/07 05:20:32;;;;;;;13.32;7.18;;;-2.50;99.90;;;;;;5052271;28;20037;-69
2022/03/07 05:22:58;;;;;;;17.40;6.82;;;-2.40;99.90;;;;;;5045545;28;20139;-70
2022/03/07 05:25:25;;;;;;;12.80;6.57;;;-2.40;99.90;;;;;;5044610;28;20033;-70
2022/03/07 05:27:51;;;;;;;12.57;6.18;;;-2.40;99.90;;;;;;5030089;28;20025;-70
2022/03/07 05:30:19;;;;;;;13.73;6.82;;;-2.40;99.90;;;;;;5045380;28;21936;-70
2022/03/07 05:32:52;;;;;;;20.65;6.82;;;-2.40;99.90;;;;;;5048887;28;20032;-69
2022/03/07 05:35:19;;;;;;;19.80;6.38;;;-2.40;99.90;;;;;;5046793;28;20024;-70
2022/03/07 05:37:45;;;;;;;13.85;5.50;;;-2.40;99.90;;;;;;5048514;28;20106;-70
2022/03/07 05:40:13;;;;;;;14.93;6.03;;;-2.40;99.90;;;;;;5051908;28;20408;-70
2022/03/07 05:42:39;;;;;;;13.52;6.07;;;-2.50;99.90;;;;;;5048020;28;20020;-70
2022/03/07 05:45:07;;;;;;;10.82;5.82;;;-2.60;99.90;;;;;;5049460;28;20028;-70
2022/03/07 05:47:32;;;;;;;13.55;6.22;;;-2.60;99.90;;;;;;5043429;28;20083;-70
2022/03/07 05:49:58;;;;;;;10.63;5.10;;;-2.70;99.90;;;;;;5032154;28;20362;-69
2022/03/07 05:52:24;;;;;;;14.57;6.47;;;-2.70;99.90;;;;;;5044810;28;20032;-70
2022/03/07 05:54:50;;;;;;;14.83;6.60;;;-2.70;99.90;;;;;;5044614;28;20968;-70
2022/03/07 05:57:15;;;;;;;14.73;5.63;;;-2.70;99.90;;;;;;5044184;28;20500;-70
2022/03/07 05:59:41;;;;;;;14.98;5.97;;;-2.80;99.90;;;;;;5046408;28;20083;-70
2022/03/07 06:02:07;;;;;;;14.23;7.10;;;-2.80;99.90;;;;;;5049333;28;20036;-73
2022/03/07 06:04:33;;;;;;;15.73;6.63;;;-2.80;99.90;;;;;;5050546;28;20696;-70
2022/03/07 06:06:59;;;;;;;18.53;7.43;;;-2.80;99.90;;;;;;5049889;28;20028;-71
2022/03/07 06:09:24;;;;;;;10.60;4.73;;;-2.70;99.90;;;;;;5049046;28;20017;-70
2022/03/07 06:11:50;;;;;;;13.77;4.53;;;-2.80;99.90;;;;;;5051854;28;20082;-72
2022/03/07 06:14:16;;;;;;;19.43;7.03;;;-2.80;99.90;;;;;;5052030;28;20029;-70
2022/03/07 06:16:42;;;;;;;12.27;6.37;;;-2.80;99.90;;;;;;5051579;28;20033;-70
2022/03/07 06:19:07;;;;;;;12.10;5.00;;;-2.70;99.90;;;;;;5053342;28;20021;-71
2022/03/07 06:21:33;;;;;;;19.23;5.77;;;-2.60;99.90;;;;;;5042662;28;20025;-82
2022/03/07 06:23:59;;;;;;;15.33;7.00;;;-2.70;99.90;;;;;;5048286;28;20029;-84
2022/03/07 06:26:24;;;;;;;19.93;7.43;;;-2.70;99.90;;;;;;5049393;28;20352;-85
2022/03/07 06:28:51;;;;;;;16.33;7.47;;;-2.70;99.90;;;;;;5044254;28;20057;-71
2022/03/07 06:31:17;;;;;;;13.68;6.80;;;-2.70;99.90;;;;;;5046734;28;20029;-70
2022/03/07 06:33:43;;;;;;;18.17;7.50;;;-2.60;99.90;;;;;;5044292;28;20424;-70
2022/03/07 06:36:09;;;;;;;17.77;7.43;;;-2.60;99.90;;;;;;5034020;28;20079;-71
2022/03/07 06:38:35;;;;;;;18.93;7.97;;;-2.60;99.90;;;;;;5048385;28;20049;-71
2022/03/07 06:41:01;;;;;;;14.93;6.75;;;-2.60;99.90;;;;;;5043185;28;20281;-71
2022/03/07 06:43:27;;;;;;;21.35;7.35;;;-2.70;99.90;;;;;;5047545;28;20053;-71
2022/03/07 06:45:54;;;;;;;15.83;7.43;;;-2.60;99.90;;;;;;5033082;28;20057;-85
2022/03/07 06:48:20;;;;;;;16.40;7.75;;;-2.50;99.90;;;;;;5032958;28;20026;-83
2022/03/07 06:50:46;;;;;;;18.47;6.77;;;-2.50;99.90;;;;;;5046365;28;20039;-84
2022/03/07 06:53:12;;;;;;;14.13;6.73;;;-2.40;99.90;;;;;;5045139;28;20692;-84
2022/03/07 06:55:37;;;;;;;22.03;8.10;;;-2.30;99.90;;;;;;5050615;28;20086;-72
2022/03/07 06:58:03;;;;;;;28.20;8.43;;;-2.10;99.90;;;;;;5031324;28;20033;-84
2022/03/07 07:00:31;;;;;;;20.67;7.97;;;-2.00;99.90;;;;;;5046445;28;20032;-70
2022/03/07 07:02:56;;;;;;;19.30;7.72;;;-1.80;99.90;;;;;;5043806;28;20033;-70
2022/03/07 07:05:22;;;;;;;21.40;8.30;;;-1.70;99.90;;;;;;5049398;28;20029;-70
2022/03/07 07:07:48;;;;;;;18.63;7.17;;;-1.40;99.90;;;;;;5048393;28;20327;-70
2022/03/07 07:10:19;;;;;;;23.33;11.33;;;-1.10;99.90;;;;;;5049395;28;20126;-70
2022/03/07 07:12:47;;;;;;;23.50;8.60;;;-0.70;99.90;;;;;;5033692;28;20536;-71
2022/03/07 07:15:13;;;;;;;24.42;9.70;;;0.00;99.90;;;;;;5035635;28;20060;-84
2022/03/07 07:17:39;;;;;;;33.13;11.93;;;0.80;99.90;;;;;;5054110;28;20025;-72
2022/03/07 07:20:06;;;;;;;29.23;12.38;;;1.90;99.90;;;;;;5051068;28;20446;-72
2022/03/07 07:22:32;;;;;;;36.58;12.40;;;2.90;99.90;;;;;;5032150;28;20452;-71
2022/03/07 07:24:58;;;;;;;24.33;10.13;;;3.70;99.90;;;;;;5056419;28;20036;-71
2022/03/07 07:27:24;;;;;;;19.87;9.43;;;4.50;99.90;;;;;;5048780;28;20529;-71
2022/03/07 07:29:49;;;;;;;14.10;6.87;;;5.40;99.90;;;;;;5055597;28;20438;-71
2022/03/07 07:32:15;;;;;;;24.77;9.03;;;6.10;99.90;;;;;;5037346;28;20033;-70
2022/03/07 07:34:41;;;;;;;11.00;6.53;;;6.50;99.90;;;;;;5054725;28;20028;-71
2022/03/07 07:37:07;;;;;;;10.33;5.80;;;7.00;99.90;;;;;;5047082;28;20040;-84
2022/03/07 07:39:33;;;;;;;10.07;5.77;;;7.40;99.90;;;;;;5032175;28;20497;-71
2022/03/07 07:41:59;;;;;;;13.57;6.93;;;7.40;99.90;;;;;;5049566;28;20028;-71
2022/03/07 07:44:24;;;;;;;10.67;4.90;;;7.30;99.90;;;;;;5049335;28;20277;-71
2022/03/07 07:46:50;;;;;;;11.23;5.50;;;6.80;99.90;;;;;;5045144;28;20056;-72
2022/03/07 07:49:16;;;;;;;14.90;8.20;;;6.80;99.90;;;;;;5048624;28;20040;-71
2022/03/07 07:51:42;;;;;;;11.50;6.77;;;6.40;99.90;;;;;;5045593;28;20033;-71
2022/03/07 07:54:07;;;;;;;15.10;6.70;;;6.60;99.90;;;;;;5033455;28;20043;-71
2022/03/07 07:56:33;;;;;;;10.07;5.33;;;6.70;99.90;;;;;;5048903;28;20037;-72
2022/03/07 07:58:59;;;;;;;14.00;5.90;;;6.50;99.90;;;;;;5035773;28;20022;-71
2022/03/07 08:01:25;;;;;;;11.40;7.43;;;6.30;99.90;;;;;;5051220;28;20028;-72
2022/03/07 08:03:50;;;;;;;8.47;5.33;;;6.10;99.90;;;;;;5052009;28;20037;-72
2022/03/07 08:06:16;;;;;;;16.53;6.33;;;6.30;99.90;;;;;;5050174;28;20028;-71
2022/03/07 08:08:42;;;;;;;14.07;6.57;;;6.60;99.90;;;;;;5050791;28;20037;-71
2022/03/07 08:11:07;;;;;;;10.10;6.77;;;6.90;99.90;;;;;;5050933;28;20036;-72
2022/03/07 08:13:33;;;;;;;11.27;6.83;;;7.20;99.90;;;;;;5051172;28;20328;-72
2022/03/07 08:15:59;;;;;;;12.33;8.17;;;7.50;99.90;;;;;;5032337;28;20029;-72
2022/03/07 08:18:24;;;;;;;7.67;4.27;;;7.40;99.90;;;;;;5050475;28;20407;-71
2022/03/07 08:20:51;;;;;;;10.03;5.67;;;7.40;99.90;;;;;;5045632;28;20041;-71
2022/03/07 08:23:17;;;;;;;11.57;5.97;;;7.30;99.90;;;;;;5045339;28;20033;-71
2022/03/07 08:25:42;;;;;;;9.97;6.27;;;7.00;99.90;;;;;;5047208;28;20033;-71
2022/03/07 08:28:08;;;;;;;15.23;6.40;;;6.80;99.90;;;;;;5046261;28;20029;-71
2022/03/07 08:30:34;;;;;;;8.90;5.50;;;6.50;99.90;;;;;;5046920;28;20029;-81
2022/03/07 08:33:00;;;;;;;7.80;4.40;;;6.60;99.90;;;;;;5047706;28;20747;-72
2022/03/07 08:35:26;;;;;;;6.68;4.38;;;7.10;99.90;;;;;;5028766;28;20044;-71
2022/03/07 08:37:53;;;;;;;13.48;6.65;;;6.80;99.90;;;;;;5025661;28;20036;-71
2022/03/07 08:40:20;;;;;;;;;;;6.50;99.90;;;;;;5046424;28;20092;-72
2022/03/07 08:42:48;;;;;;;9.95;5.60;;;6.40;99.90;;;;;;5040857;28;19929;-72
2022/03/07 08:45:14;;;;;;;11.88;5.57;;;6.80;99.90;;;;;;5044567;28;20021;-83
2022/03/07 08:47:41;;;;;;;9.17;6.00;;;6.90;99.90;;;;;;5046546;28;20036;-71
2022/03/07 08:50:08;;;;;;;;;;;6.90;99.90;;;;;;5023158;28;20490;-72
2022/03/07 08:52:34;;;;;;;10.82;5.18;;;6.90;99.90;;;;;;5038564;28;20300;-72
2022/03/07 08:55:00;;;;;;;12.33;6.20;;;7.10;99.90;;;;;;5041684;28;20036;-72
2022/03/07 08:57:26;;;;;;;10.45;5.35;;;7.40;99.90;;;;;;5044027;28;20057;-83
2022/03/07 08:59:52;;;;;;;9.73;4.93;;;7.90;99.90;;;;;;5042877;28;20444;-72
2022/03/07 09:02:17;;;;;;;10.53;5.10;;;8.20;99.90;;;;;;5045659;28;20025;-73
2022/03/07 09:04:43;;;;;;;11.47;4.97;;;8.00;99.90;;;;;;5041491;28;20028;-73
2022/03/07 09:07:09;;;;;;;11.23;6.20;;;8.00;99.90;;;;;;5052318;28;20076;-72
2022/03/07 09:09:35;;;;;;;11.03;5.17;;;7.50;99.90;;;;;;5052692;28;20071;-73
2022/03/07 09:12:03;;;;;;;9.80;5.28;;;7.70;99.90;;;;;;5049936;28;20040;-72
2022/03/07 09:14:30;;;;;;;14.32;6.55;;;8.30;99.90;;;;;;5051776;28;20408;-73
2022/03/07 09:16:56;;;;;;;11.07;4.68;;;8.20;99.90;;;;;;5049165;28;20041;-72
2022/03/07 09:19:22;;;;;;;11.15;5.78;;;8.20;99.90;;;;;;5050683;28;20056;-73
2022/03/07 09:21:47;;;;;;;10.60;5.80;;;8.10;99.90;;;;;;5032450;28;20060;-72
2022/03/07 09:24:14;;;;;;;7.53;4.32;;;8.10;99.90;;;;;;5030105;28;20021;-73
2022/03/07 09:26:39;;;;;;;8.30;4.20;;;7.70;99.90;;;;;;5025268;28;20095;-72
2022/03/07 09:29:05;;;;;;;10.03;5.30;;;7.70;99.90;;;;;;5047161;28;20045;-72
2022/03/07 09:31:31;;;;;;;7.20;5.07;;;7.70;99.90;;;;;;5043794;28;20083;-73
2022/03/07 09:33:57;;;;;;;7.50;4.80;;;7.10;99.90;;;;;;5044561;28;20037;-72
2022/03/07 09:36:23;;;;;;;6.80;4.40;;;6.70;99.90;;;;;;5026992;28;20286;-72
2022/03/07 09:38:50;;;;;;;8.97;5.50;;;6.50;99.90;;;;;;5050331;28;20041;-73
2022/03/07 09:41:17;;;;;;;6.82;3.53;;;6.70;99.90;;;;;;5043603;28;20022;-73
2022/03/07 09:43:44;;;;;;;7.75;5.38;;;6.70;99.90;;;;;;5042782;28;20126;-72
2022/03/07 09:46:11;;;;;;;10.23;5.68;;;6.60;99.90;;;;;;5039370;28;20028;-72
2022/03/07 09:48:37;;;;;;;9.25;5.20;;;6.40;99.90;;;;;;5051255;28;20037;-77
2022/03/07 09:51:03;;;;;;;14.32;4.75;;;6.60;99.90;;;;;;5042227;28;20078;-72
2022/03/07 09:53:28;;;;;;;7.83;4.67;;;6.80;99.90;;;;;;5048159;28;21654;-73
2022/03/07 09:55:54;;;;;;;10.10;5.47;;;6.60;99.90;;;;;;5048114;28;20036;-72
2022/03/07 09:58:20;;;;;;;13.13;5.03;;;6.40;99.90;;;;;;5037425;28;20021;-72
2022/03/07 10:00:46;;;;;;;10.38;5.13;;;6.40;99.90;;;;;;5040178;28;20017;-72
2022/03/07 10:03:14;;;;;;;7.07;4.60;;;6.20;99.90;;;;;;5052623;28;20044;-73
2022/03/07 10:05:45;;;;;;;8.32;5.35;;;6.30;99.90;;;;;;5051510;28;20028;-74
2022/03/07 10:08:20;;;;;;;12.85;6.22;;;6.10;99.90;;;;;;5030614;28;20316;-72
2022/03/07 10:10:46;;;;;;;7.75;4.07;;;6.10;99.90;;;;;;5045756;28;20032;-73
2022/03/07 10:13:14;;;;;;;8.30;4.03;;;6.20;99.90;;;;;;5046546;28;20036;-72
2022/03/07 10:15:42;;;;;;;9.73;5.53;;;6.30;99.90;;;;;;5044264;28;20082;-72
2022/03/07 10:18:20;;;;;;;6.88;4.57;;;6.20;99.90;;;;;;5042146;28;20419;-72
2022/03/07 10:20:54;;;;;;;9.10;4.90;;;6.00;99.90;;;;;;5027820;28;20297;-72
2022/03/07 10:23:21;;;;;;;8.68;4.38;;;5.90;99.90;;;;;;5045902;28;20032;-73
2022/03/07 10:25:48;;;;;;;8.00;5.15;;;5.90;99.90;;;;;;5035854;28;20036;-73
2022/03/07 10:28:14;;;;;;;9.35;3.53;;;6.00;99.90;;;;;;5037278;28;20424;-72
2022/03/07 10:30:40;;;;;;;5.38;3.05;;;5.90;99.90;;;;;;5049182;28;20167;-73
2022/03/07 10:33:09;;;;;;;9.27;5.27;;;5.90;99.90;;;;;;5038785;28;20032;-72
2022/03/07 10:35:41;;;;;;;4.75;3.35;;;5.80;99.90;;;;;;5035507;28;20708;-73
2022/03/07 10:38:15;;;;;;;5.15;2.60;;;5.70;99.90;;;;;;5043158;28;20183;-73
2022/03/07 10:40:47;;;;;;;7.13;3.97;;;5.60;99.90;;;;;;5045388;28;20051;-72
2022/03/07 10:43:14;;;;;;;8.80;4.88;;;5.60;99.90;;;;;;5040959;28;20025;-72
2022/03/07 10:45:55;;;;;;;9.93;5.38;;;5.60;99.90;;;;;;5048050;28;20078;-73
2022/03/07 10:48:26;;;;;;;9.23;4.32;;;5.80;99.90;;;;;;5035620;28;20031;-73
2022/03/07 10:50:57;;;;;;;7.22;3.75;;;6.00;99.90;;;;;;5047309;28;20351;-72
2022/03/07 10:53:25;;;;;;;3.33;2.78;;;5.90;99.90;;;;;;5048907;28;20032;-73
2022/03/07 10:55:56;;;;;;;7.45;4.15;;;6.00;99.90;;;;;;5033750;28;20099;-73
2022/03/07 10:58:23;;;;;;;6.20;4.35;;;6.10;99.90;;;;;;5052425;28;20025;-73
2022/03/07 11:01:00;;;;;;;6.97;4.15;;;6.10;99.90;;;;;;5047958;28;20319;-73
2022/03/07 11:03:31;;;;;;;6.38;4.13;;;6.30;99.90;;;;;;5046234;28;20036;-73
2022/03/07 11:05:58;;;;;;;6.70;4.32;;;6.10;99.90;;;;;;5051028;28;20040;-73
2022/03/07 11:08:24;;;;;;;;;;;6.00;99.90;;;;;;5029366;28;20389;-73
2022/03/07 11:10:55;;;;;;;5.53;3.92;;;5.80;99.90;;;;;;5033219;28;19957;-74
2022/03/07 11:13:26;;;;;;;7.22;4.72;;;5.80;99.90;;;;;;5027476;28;20124;-72
2022/03/07 11:15:55;;;;;;;9.95;3.58;;;6.00;99.90;;;;;;5028181;28;20033;-72
2022/03/07 11:18:22;;;;;;;4.95;3.78;;;6.20;99.90;;;;;;5055174;28;20431;-73
2022/03/07 11:20:48;;;;;;;8.32;4.50;;;6.10;99.90;;;;;;5055409;28;20033;-73
2022/03/07 11:23:20;;;;;;;9.20;4.85;;;5.90;99.90;;;;;;5036501;28;20098;-73
2022/03/07 11:25:46;;;;;;;11.10;4.95;;;6.00;99.90;;;;;;5032292;28;20444;-72
2022/03/07 11:28:12;;;;;;;12.45;5.13;;;6.00;99.90;;;;;;5047357;28;20029;-73
2022/03/07 11:30:42;;;;;;;7.70;4.32;;;6.30;99.90;;;;;;5048368;28;20652;-73
2022/03/07 11:33:09;;;;;;;7.70;5.07;;;6.20;99.90;;;;;;5036798;28;20053;-73
2022/03/07 11:35:35;;;;;;;9.88;4.78;;;6.20;99.90;;;;;;5047024;28;20025;-73
2022/03/07 11:38:12;;;;;;;9.93;4.93;;;6.20;99.90;;;;;;5045850;28;20129;-73
2022/03/07 11:40:56;;;;;;;9.10;5.25;;;6.20;99.90;;;;;;5031459;28;20424;-72
2022/03/07 11:43:24;;;;;;;6.45;4.45;;;6.10;99.90;;;;;;5045557;28;20025;-72
2022/03/07 11:45:50;;;;;;;5.90;4.18;;;6.20;99.90;;;;;;5029674;28;20105;-72
2022/03/07 11:48:16;;;;;;;6.47;3.78;;;6.30;99.90;;;;;;5032725;28;20033;-72
2022/03/07 11:50:42;;;;;;;7.37;5.07;;;6.50;99.90;;;;;;5054044;28;20037;-73
2022/03/07 11:53:08;;;;;;;6.65;4.22;;;6.40;99.90;;;;;;5047571;28;20120;-73
2022/03/07 11:55:44;;;;;;;7.03;3.50;;;6.40;99.90;;;;;;5052181;28;20112;-82
2022/03/07 11:58:09;;;;;;;5.68;3.92;;;6.40;99.90;;;;;;5043451;28;20017;-73
2022/03/07 12:00:36;;;;;;;6.53;4.57;;;6.20;99.90;;;;;;5054458;28;20087;-73
2022/03/07 12:03:24;;;;;;;8.75;5.20;;;6.20;99.90;;;;;;5054905;28;20053;-77
2022/03/07 12:06:01;;;;;;;9.88;4.47;;;6.40;99.90;;;;;;5039902;28;20301;-73
2022/03/07 12:08:27;;;;;;;14.65;5.70;;;6.60;99.90;;;;;;5049888;28;20301;-82
2022/03/07 12:11:02;;;;;;;4.20;3.55;;;6.70;99.90;;;;;;5054925;28;20094;-72
2022/03/07 12:13:33;;;;;;;8.88;4.80;;;6.80;99.90;;;;;;5055266;28;20025;-73
2022/03/07 12:16:00;;;;;;;6.97;3.95;;;6.60;99.90;;;;;;5046169;28;20155;-73
2022/03/07 12:18:27;;;;;;;7.68;3.55;;;6.50;99.90;;;;;;5055492;28;20021;-73
2022/03/07 12:21:02;;;;;;;7.82;4.40;;;6.40;99.90;;;;;;5053793;28;20064;-83
2022/03/07 12:23:30;;;;;;;6.07;3.35;;;6.50;99.90;;;;;;5055721;28;20032;-73
2022/03/07 12:26:03;;;;;;;8.80;4.18;;;6.60;99.90;;;;;;5052636;28;20130;-73
2022/03/07 12:28:35;;;;;;;6.57;3.58;;;6.70;99.90;;;;;;5049131;28;20111;-72
2022/03/07 12:31:02;;;;;;;6.85;3.88;;;6.50;99.90;;;;;;5030599;28;20098;-73
2022/03/07 12:33:28;;;;;;;;;;;6.50;99.90;;;;;;5036138;28;20037;-73
2022/03/07 12:36:09;;;;;;;11.05;3.85;;;6.70;99.90;;;;;;5051608;28;19915;-73
2022/03/07 12:38:46;;;;;;;6.97;3.50;;;7.00;99.90;;;;;;5038936;28;20052;-73
2022/03/07 12:41:14;;;;;;;16.00;4.82;;;6.80;99.90;;;;;;5046825;28;20048;-73
2022/03/07 12:43:40;;;;;;;6.20;3.72;;;6.70;99.90;;;;;;5034343;28;20036;-73
2022/03/07 12:46:06;;;;;;;6.25;3.28;;;6.80;99.90;;;;;;5033440;28;20041;-72